Time,TemperatureF,DewpointF,PressureIn,WindDirection,WindDirectionDegrees,WindSpeedMPH,WindSpeedGustMPH,Humidity,HourlyPrecipIn,Conditions,Clouds,dailyrainin,SoftwareType,DateUTC
2013-03-05 00:00:00,28.3,21.4,30.12,North,351,0.0,0.0,75,0.00,,FEW120,0.00,VWS V14.00,2013-03-05 05:00:00,
2013-03-05 00:05:00,28.1,21.5,30.13,North,351,0.0,0.0,76,0.00,,CLR,0.00,VWS V14.00,2013-03-05 05:05:00,
2013-03-05 00:10:00,28.0,21.4,30.12,North,351,0.0,0.0,76,0.00,,CLR,0.00,VWS V14.00,2013-03-05 05:10:00,
2013-03-05 00:15:00,27.9,21.3,30.13,North,351,0.0,0.0,76,0.00,,CLR,0.00,VWS V14.00,2013-03-05 05:15:00,
2013-03-05 00:20:00,27.8,21.2,30.12,North,351,0.0,0.0,76,0.00,,CLR,0.00,VWS V14.00,2013-03-05 05:20:00,
2013-03-05 00:25:00,27.4,20.8,30.12,North,350,0.0,0.0,76,0.00,,CLR,0.00,VWS V14.00,2013-03-05 05:25:00,
2013-03-05 00:30:00,27.3,21.1,30.12,North,351,0.0,0.0,77,0.00,,CLR,0.00,VWS V14.00,2013-03-05 05:30:00,
2013-03-05 00:35:00,26.9,20.7,30.12,North,351,0.0,0.0,77,0.00,,CLR,0.00,VWS V14.00,2013-03-05 05:35:00,
2013-03-05 00:40:00,26.5,20.6,30.12,North,351,0.0,0.0,78,0.00,,CLR,0.00,VWS V14.00,2013-03-05 05:40:00,
2013-03-05 00:45:00,26.2,20.3,30.12,North,351,0.0,0.0,78,0.00,,CLR,0.00,VWS V14.00,2013-03-05 05:45:00,
2013-03-05 00:50:00,25.9,20.3,30.12,North,350,0.0,0.0,79,0.00,,CLR,0.00,VWS V14.00,2013-03-05 05:50:00,
2013-03-05 00:55:00,25.7,20.4,30.12,North,350,0.0,0.0,80,0.00,,CLR,0.00,VWS V14.00,2013-03-05 05:55:00,
2013-03-05 01:00:00,25.6,20.3,30.12,North,350,0.0,0.0,80,0.00,,CLR,0.00,VWS V14.00,2013-03-05 06:00:00,
2013-03-05 01:05:00,25.5,20.5,30.11,North,351,0.0,0.0,81,0.00,,CLR,0.00,VWS V14.00,2013-03-05 06:05:00,
2013-03-05 01:10:00,25.4,20.4,30.11,North,351,0.0,0.0,81,0.00,,CLR,0.00,VWS V14.00,2013-03-05 06:10:00,
2013-03-05 01:15:00,25.4,20.4,30.11,North,351,0.0,0.0,81,0.00,,CLR,0.00,VWS V14.00,2013-03-05 06:15:00,
2013-03-05 01:20:00,25.4,20.7,30.12,North,351,0.0,0.0,82,0.00,,CLR,0.00,VWS V14.00,2013-03-05 06:20:00,
2013-03-05 01:25:00,25.3,20.6,30.11,North,351,0.0,1.0,82,0.00,,CLR,0.00,VWS V14.00,2013-03-05 06:25:00,
2013-03-05 01:30:00,25.4,20.7,30.11,North,351,0.0,0.0,82,0.00,,CLR,0.00,VWS V14.00,2013-03-05 06:30:00,
2013-03-05 01:35:00,25.5,20.8,30.11,North,360,0.0,1.0,82,0.00,,CLR,0.00,VWS V14.00,2013-03-05 06:35:00,
2013-03-05 01:40:00,25.6,20.9,30.11,NNE,17,0.0,2.0,82,0.00,,CLR,0.00,VWS V14.00,2013-03-05 06:40:00,
2013-03-05 01:45:00,25.7,21.3,30.11,NE,36,0.0,2.0,83,0.00,,CLR,0.00,VWS V14.00,2013-03-05 06:45:00,
2013-03-05 01:50:00,25.8,21.4,30.11,NE,36,0.0,0.0,83,0.00,,CLR,0.00,VWS V14.00,2013-03-05 06:50:00,
2013-03-05 01:55:00,25.8,21.4,30.11,ENE,76,0.0,2.0,83,0.00,,CLR,0.00,VWS V14.00,2013-03-05 06:55:00,
2013-03-05 02:00:00,25.8,21.4,30.11,ENE,74,2.0,3.0,83,0.00,,CLR,0.00,VWS V14.00,2013-03-05 07:00:00,
2013-03-05 02:05:00,25.8,21.4,30.11,East,83,0.0,3.0,83,0.00,,CLR,0.00,VWS V14.00,2013-03-05 07:05:00,
2013-03-05 02:10:00,25.8,21.4,30.11,East,80,0.0,0.0,83,0.00,,CLR,0.00,VWS V14.00,2013-03-05 07:10:00,
2013-03-05 02:15:00,25.7,21.3,30.11,East,81,0.0,2.0,83,0.00,,CLR,0.00,VWS V14.00,2013-03-05 07:15:00,
2013-03-05 02:20:00,25.6,21.2,30.10,East,80,0.0,0.0,83,0.00,,CLR,0.00,VWS V14.00,2013-03-05 07:20:00,
2013-03-05 02:25:00,25.5,21.1,30.10,East,80,0.0,0.0,83,0.00,,CLR,0.00,VWS V14.00,2013-03-05 07:25:00,
2013-03-05 02:30:00,25.4,21.0,30.10,East,81,0.0,0.0,83,0.00,,CLR,0.00,VWS V14.00,2013-03-05 07:30:00,
2013-03-05 02:35:00,25.4,21.2,30.10,East,81,0.0,2.0,84,0.00,,CLR,0.00,VWS V14.00,2013-03-05 07:35:00,
2013-03-05 02:40:00,25.3,21.1,30.10,East,81,0.0,0.0,84,0.00,,CLR,0.00,VWS V14.00,2013-03-05 07:40:00,
2013-03-05 02:45:00,25.3,21.1,30.10,East,81,0.0,2.0,84,0.00,,CLR,0.00,VWS V14.00,2013-03-05 07:45:00,
2013-03-05 02:50:00,25.2,21.0,30.10,East,81,0.0,1.0,84,0.00,,CLR,0.00,VWS V14.00,2013-03-05 07:50:00,
2013-03-05 02:55:00,25.2,21.3,30.10,ENE,76,0.0,3.0,85,0.00,,CLR,0.00,VWS V14.00,2013-03-05 07:55:00,
2013-03-05 03:00:00,25.2,21.3,30.09,ENE,78,0.0,2.0,85,0.00,,CLR,0.00,VWS V14.00,2013-03-05 08:00:00,
2013-03-05 03:05:00,25.2,21.3,30.09,East,81,0.0,2.0,85,0.00,,CLR,0.00,VWS V14.00,2013-03-05 08:05:00,
2013-03-05 03:10:00,25.2,21.3,30.09,East,82,0.0,0.0,85,0.00,,CLR,0.00,VWS V14.00,2013-03-05 08:10:00,
2013-03-05 03:15:00,25.1,21.2,30.09,ENE,74,0.0,3.0,85,0.00,,CLR,0.00,VWS V14.00,2013-03-05 08:15:00,
2013-03-05 03:20:00,25.1,21.5,30.09,ENE,70,0.0,0.0,86,0.00,,CLR,0.00,VWS V14.00,2013-03-05 08:20:00,
2013-03-05 03:25:00,25.1,21.2,30.09,ENE,70,0.0,1.0,85,0.00,,CLR,0.00,VWS V14.00,2013-03-05 08:25:00,
2013-03-05 03:30:00,25.1,21.5,30.09,ENE,70,0.0,0.0,86,0.00,,CLR,0.00,VWS V14.00,2013-03-05 08:30:00,
2013-03-05 03:35:00,25.0,21.4,30.09,ENE,74,0.0,4.0,86,0.00,,CLR,0.00,VWS V14.00,2013-03-05 08:35:00,
2013-03-05 03:40:00,24.9,21.3,30.08,ENE,78,0.0,2.0,86,0.00,,CLR,0.00,VWS V14.00,2013-03-05 08:40:00,
2013-03-05 03:45:00,24.9,21.3,30.08,ENE,66,0.0,3.0,86,0.00,,CLR,0.00,VWS V14.00,2013-03-05 08:45:00,
2013-03-05 03:50:00,24.8,21.2,30.08,ENE,76,2.0,3.0,86,0.00,,CLR,0.00,VWS V14.00,2013-03-05 08:50:00,
2013-03-05 03:55:00,24.8,21.2,30.08,ENE,76,0.0,4.0,86,0.00,,CLR,0.00,VWS V14.00,2013-03-05 08:55:00,
2013-03-05 04:00:00,24.8,21.2,30.08,East,81,0.0,0.0,86,0.00,,CLR,0.00,VWS V14.00,2013-03-05 09:00:00,
2013-03-05 04:05:00,24.7,21.1,30.08,ENE,78,1.0,4.0,86,0.00,,CLR,0.00,VWS V14.00,2013-03-05 09:05:00,
2013-03-05 04:10:00,24.7,21.1,30.08,East,84,2.0,4.0,86,0.00,,CLR,0.00,VWS V14.00,2013-03-05 09:10:00,
2013-03-05 04:15:00,24.7,21.1,30.08,ENE,65,1.0,4.0,86,0.00,,CLR,0.00,VWS V14.00,2013-03-05 09:15:00,
2013-03-05 04:20:00,24.7,21.1,30.08,East,84,1.0,1.0,86,0.00,,CLR,0.00,VWS V14.00,2013-03-05 09:20:00,
2013-03-05 04:25:00,24.7,21.1,30.07,East,86,0.0,5.0,86,0.00,,CLR,0.00,VWS V14.00,2013-03-05 09:25:00,
2013-03-05 04:30:00,24.8,21.2,30.07,East,92,3.0,5.0,86,0.00,,CLR,0.00,VWS V14.00,2013-03-05 09:30:00,
2013-03-05 04:35:00,24.8,21.2,30.07,ENE,63,4.0,6.0,86,0.00,,CLR,0.00,VWS V14.00,2013-03-05 09:35:00,
2013-03-05 04:40:00,24.8,21.2,30.06,ENE,78,0.0,3.0,86,0.00,,CLR,0.00,VWS V14.00,2013-03-05 09:40:00,
2013-03-05 04:45:00,24.8,21.2,30.06,East,86,3.0,6.0,86,0.00,,CLR,0.00,VWS V14.00,2013-03-05 09:45:00,
2013-03-05 04:50:00,24.9,21.0,30.07,East,88,0.0,0.0,85,0.00,,CLR,0.00,VWS V14.00,2013-03-05 09:50:00,
2013-03-05 04:55:00,24.9,21.0,30.06,East,89,2.0,7.0,85,0.00,,CLR,0.00,VWS V14.00,2013-03-05 09:55:00,
2013-03-05 05:00:00,24.9,21.0,30.06,ENE,65,3.0,5.0,85,0.00,,CLR,0.00,VWS V14.00,2013-03-05 10:00:00,
2013-03-05 05:05:00,24.8,20.9,30.06,East,93,0.0,5.0,85,0.00,,CLR,0.00,VWS V14.00,2013-03-05 10:05:00,
2013-03-05 05:10:00,24.8,20.9,30.07,East,94,0.0,3.0,85,0.00,,CLR,0.00,VWS V14.00,2013-03-05 10:10:00,
2013-03-05 05:15:00,24.8,20.9,30.07,ENE,69,4.0,7.0,85,0.00,,CLR,0.00,VWS V14.00,2013-03-05 10:15:00,
2013-03-05 05:20:00,24.7,20.8,30.07,SE,126,0.0,4.0,85,0.00,,CLR,0.00,VWS V14.00,2013-03-05 10:20:00,
2013-03-05 05:25:00,24.7,20.6,30.06,East,98,0.0,5.0,84,0.00,,CLR,0.00,VWS V14.00,2013-03-05 10:25:00,
2013-03-05 05:30:00,24.7,20.6,30.06,East,84,2.0,2.0,84,0.00,,CLR,0.00,VWS V14.00,2013-03-05 10:30:00,
2013-03-05 05:35:00,24.7,20.6,30.06,East,98,0.0,4.0,84,0.00,,CLR,0.00,VWS V14.00,2013-03-05 10:35:00,
2013-03-05 05:40:00,24.7,20.6,30.06,East,93,4.0,6.0,84,0.00,,CLR,0.00,VWS V14.00,2013-03-05 10:40:00,
2013-03-05 05:45:00,24.7,20.6,30.06,East,93,0.0,7.0,84,0.00,,CLR,0.00,VWS V14.00,2013-03-05 10:45:00,
2013-03-05 05:50:00,24.7,20.6,30.06,ESE,114,2.0,3.0,84,0.00,,CLR,0.00,VWS V14.00,2013-03-05 10:50:00,
2013-03-05 05:55:00,24.8,20.9,30.06,East,84,2.0,7.0,85,0.00,,CLR,0.00,VWS V14.00,2013-03-05 10:55:00,
2013-03-05 06:00:00,24.9,21.0,30.06,ESE,111,0.0,0.0,85,0.00,,CLR,0.00,VWS V14.00,2013-03-05 11:00:00,
2013-03-05 06:05:00,25.0,21.1,30.06,ENE,65,3.0,10.0,85,0.00,,CLR,0.00,VWS V14.00,2013-03-05 11:05:00,
2013-03-05 06:10:00,25.1,21.2,30.06,ESE,110,4.0,13.0,85,0.00,,CLR,0.00,VWS V14.00,2013-03-05 11:10:00,
2013-03-05 06:15:00,25.2,21.3,30.06,East,93,3.0,13.0,85,0.00,,CLR,0.00,VWS V14.00,2013-03-05 11:15:00,
2013-03-05 06:20:00,25.3,21.4,30.06,East,79,3.0,3.0,85,0.00,,CLR,0.00,VWS V14.00,2013-03-05 11:20:00,
2013-03-05 06:25:00,25.4,21.5,30.06,ESE,114,6.0,11.0,85,0.00,,CLR,0.00,VWS V14.00,2013-03-05 11:25:00,
2013-03-05 06:30:00,25.4,21.5,30.05,ESE,117,6.0,9.0,85,0.00,,CLR,0.00,VWS V14.00,2013-03-05 11:30:00,
2013-03-05 06:35:00,25.4,21.5,30.05,ENE,68,4.0,9.0,85,0.00,,CLR,0.00,VWS V14.00,2013-03-05 11:35:00,
2013-03-05 06:40:00,25.4,21.5,30.05,ENE,67,4.0,6.0,85,0.00,,CLR,0.00,VWS V14.00,2013-03-05 11:40:00,
2013-03-05 06:45:00,25.3,21.4,30.05,ENE,74,6.0,10.0,85,0.00,,CLR,0.00,VWS V14.00,2013-03-05 11:45:00,
2013-03-05 06:50:00,25.3,21.4,30.05,SE,130,2.0,9.0,85,0.00,,CLR,0.00,VWS V14.00,2013-03-05 11:50:00,
2013-03-05 06:55:00,25.4,21.5,30.05,East,97,4.0,10.0,85,0.00,,CLR,0.00,VWS V14.00,2013-03-05 11:55:00,
2013-03-05 07:00:00,25.4,21.5,30.05,East,94,2.0,5.0,85,0.00,,CLR,0.00,VWS V14.00,2013-03-05 12:00:00,
2013-03-05 07:05:00,25.3,21.4,30.05,ENE,58,6.0,13.0,85,0.00,,BKN009,0.00,VWS V14.00,2013-03-05 12:05:00,
2013-03-05 07:10:00,25.4,21.5,30.05,ENE,75,7.0,7.0,85,0.00,,BKN009,0.00,VWS V14.00,2013-03-05 12:10:00,
2013-03-05 07:15:00,25.4,21.5,30.05,ENE,69,7.0,12.0,85,0.00,,BKN009,0.00,VWS V14.00,2013-03-05 12:15:00,
2013-03-05 07:20:00,25.4,21.5,30.05,ESE,110,0.0,0.0,85,0.00,,BKN009,0.00,VWS V14.00,2013-03-05 12:20:00,
2013-03-05 07:25:00,25.5,21.6,30.05,East,82,4.0,6.0,85,0.00,,BKN009,0.00,VWS V14.00,2013-03-05 12:25:00,
2013-03-05 07:30:00,25.5,21.6,30.05,East,101,7.0,10.0,85,0.00,,BKN009,0.00,VWS V14.00,2013-03-05 12:30:00,
2013-03-05 07:34:00,25.5,21.6,30.05,East,96,1.0,11.0,85,0.00,,BKN009,0.00,VWS V14.00,2013-03-05 12:34:00,
2013-03-05 07:39:00,25.5,21.4,30.04,ESE,118,2.0,11.0,84,0.00,,BKN009,0.00,VWS V14.00,2013-03-05 12:39:00,
2013-03-05 07:44:00,25.4,21.2,30.05,East,82,4.0,15.0,84,0.00,,BKN009,0.00,VWS V14.00,2013-03-05 12:44:00,
2013-03-05 07:49:00,25.4,21.2,30.05,East,96,4.0,6.0,84,0.00,,BKN009,0.00,VWS V14.00,2013-03-05 12:49:00,
2013-03-05 07:54:00,25.5,21.4,30.05,ESE,107,4.0,8.0,84,0.00,,BKN009,0.00,VWS V14.00,2013-03-05 12:54:00,
2013-03-05 07:59:00,25.6,21.7,30.05,ESE,122,3.0,5.0,85,0.00,,BKN009,0.00,VWS V14.00,2013-03-05 12:59:00,
2013-03-05 08:04:00,25.7,21.8,30.05,East,101,3.0,13.0,85,0.00,,OVC009,0.00,VWS V14.00,2013-03-05 13:04:00,
2013-03-05 08:09:00,25.8,21.9,30.05,ENE,57,6.0,6.0,85,0.00,,OVC009,0.00,VWS V14.00,2013-03-05 13:09:00,
2013-03-05 08:14:00,25.9,22.0,30.05,ENE,76,0.0,6.0,85,0.00,,OVC009,0.00,VWS V14.00,2013-03-05 13:14:00,
2013-03-05 08:19:00,26.0,21.8,30.05,East,99,2.0,4.0,84,0.00,,OVC009,0.00,VWS V14.00,2013-03-05 13:19:00,
2013-03-05 08:24:00,26.0,21.8,30.05,ESE,120,11.0,13.0,84,0.00,,OVC009,0.00,VWS V14.00,2013-03-05 13:24:00,
2013-03-05 08:29:00,26.1,21.9,30.06,ESE,106,3.0,7.0,84,0.00,,OVC009,0.00,VWS V14.00,2013-03-05 13:29:00,
2013-03-05 08:34:00,26.2,22.0,30.05,NE,52,7.0,11.0,84,0.00,,OVC009,0.00,VWS V14.00,2013-03-05 13:34:00,
2013-03-05 08:39:00,26.2,22.0,30.05,ESE,102,1.0,3.0,84,0.00,,OVC009,0.00,VWS V14.00,2013-03-05 13:39:00,
2013-03-05 08:44:00,26.3,22.1,30.05,East,88,3.0,7.0,84,0.00,,OVC009,0.00,VWS V14.00,2013-03-05 13:44:00,
2013-03-05 08:49:00,26.4,22.2,30.05,East,86,3.0,5.0,84,0.00,,OVC009,0.00,VWS V14.00,2013-03-05 13:49:00,
2013-03-05 08:54:00,26.6,22.4,30.05,ESE,114,3.0,9.0,84,0.00,,OVC009,0.00,VWS V14.00,2013-03-05 13:54:00,
2013-03-05 08:59:00,26.7,22.5,30.05,SE,126,4.0,4.0,84,0.00,,OVC009,0.00,VWS V14.00,2013-03-05 13:59:00,
2013-03-05 09:04:00,26.8,22.6,30.05,SE,130,4.0,11.0,84,0.00,,OVC009,0.00,VWS V14.00,2013-03-05 14:04:00,
2013-03-05 09:09:00,26.9,22.4,30.05,SE,138,5.0,11.0,83,0.00,,OVC009,0.00,VWS V14.00,2013-03-05 14:09:00,
2013-03-05 09:14:00,26.9,22.4,30.05,East,101,2.0,13.0,83,0.00,,OVC009,0.00,VWS V14.00,2013-03-05 14:14:00,
2013-03-05 09:19:00,27.0,22.5,30.05,ESE,103,5.0,7.0,83,0.00,,OVC009,0.00,VWS V14.00,2013-03-05 14:19:00,
2013-03-05 09:24:00,27.1,22.6,30.04,SE,124,6.0,10.0,83,0.00,,OVC009,0.00,VWS V14.00,2013-03-05 14:24:00,
2013-03-05 09:29:00,27.2,22.7,30.04,ESE,117,4.0,5.0,83,0.00,,OVC009,0.00,VWS V14.00,2013-03-05 14:29:00,
2013-03-05 09:34:00,27.4,22.9,30.04,ESE,121,2.0,10.0,83,0.00,,OVC009,0.00,VWS V14.00,2013-03-05 14:34:00,
2013-03-05 09:39:00,27.6,22.8,30.04,East,98,2.0,4.0,82,0.00,,OVC009,0.00,VWS V14.00,2013-03-05 14:39:00,
2013-03-05 09:44:00,27.6,22.8,30.04,SE,133,9.0,12.0,82,0.00,,OVC009,0.00,VWS V14.00,2013-03-05 14:44:00,
2013-03-05 09:49:00,27.6,22.5,30.04,ESE,105,0.0,2.0,81,0.00,,OVC009,0.00,VWS V14.00,2013-03-05 14:49:00,
2013-03-05 09:54:00,27.7,22.6,30.04,SE,136,7.0,10.0,81,0.00,,OVC009,0.00,VWS V14.00,2013-03-05 14:54:00,
2013-03-05 09:59:00,27.8,22.4,30.04,ESE,102,2.0,4.0,80,0.00,,OVC009,0.00,VWS V14.00,2013-03-05 14:59:00,
2013-03-05 10:04:00,28.0,22.6,30.03,SE,130,3.0,14.0,80,0.00,,BKN050,0.00,VWS V14.00,2013-03-05 15:04:00,
2013-03-05 10:09:00,28.1,22.7,30.03,East,94,3.0,3.0,80,0.00,,BKN050,0.00,VWS V14.00,2013-03-05 15:09:00,
2013-03-05 10:14:00,28.2,22.5,30.02,East,88,5.0,13.0,79,0.00,,BKN050,0.00,VWS V14.00,2013-03-05 15:14:00,
2013-03-05 10:19:00,28.2,22.5,30.02,East,99,4.0,5.0,79,0.00,,BKN050,0.00,VWS V14.00,2013-03-05 15:19:00,
2013-03-05 10:24:00,28.4,22.7,30.02,East,83,6.0,10.0,79,0.00,,BKN050,0.00,VWS V14.00,2013-03-05 15:24:00,
2013-03-05 10:29:00,28.4,22.7,30.02,SSE,148,2.0,10.0,79,0.00,,BKN050,0.00,VWS V14.00,2013-03-05 15:29:00,
2013-03-05 10:34:00,28.2,22.5,30.01,East,85,6.0,16.0,79,0.00,,OVC055,0.00,VWS V14.00,2013-03-05 15:34:00,
2013-03-05 10:39:00,28.3,22.6,30.00,ENE,73,4.0,11.0,79,0.00,,OVC055,0.00,VWS V14.00,2013-03-05 15:39:00,
2013-03-05 10:44:00,28.8,23.1,30.00,ESE,109,4.0,14.0,79,0.00,,OVC055,0.00,VWS V14.00,2013-03-05 15:44:00,
2013-03-05 10:49:00,29.1,23.1,30.01,SE,128,5.0,5.0,78,0.00,,OVC055,0.00,VWS V14.00,2013-03-05 15:49:00,
2013-03-05 10:54:00,29.2,23.2,30.00,SE,130,11.0,15.0,78,0.00,,OVC055,0.00,VWS V14.00,2013-03-05 15:54:00,
2013-03-05 10:59:00,29.3,23.3,30.01,SSE,153,4.0,6.0,78,0.00,,OVC055,0.00,VWS V14.00,2013-03-05 15:59:00,
2013-03-05 11:04:00,30.0,24.3,30.01,ESE,109,3.0,14.0,79,0.00,,BKN055,0.00,VWS V14.00,2013-03-05 16:04:00,
2013-03-05 11:09:00,31.4,25.4,30.00,SE,128,6.0,6.0,78,0.00,,BKN055,0.00,VWS V14.00,2013-03-05 16:09:00,
2013-03-05 11:14:00,32.4,25.7,30.01,ENE,64,8.0,12.0,76,0.00,,BKN055,0.00,VWS V14.00,2013-03-05 16:14:00,
2013-03-05 11:19:00,31.9,23.9,30.00,East,91,11.0,11.0,72,0.00,,BKN055,0.00,VWS V14.00,2013-03-05 16:19:00,
2013-03-05 11:24:00,31.1,23.1,30.00,ENE,77,12.0,13.0,72,0.00,,BKN055,0.00,VWS V14.00,2013-03-05 16:24:00,
2013-03-05 11:29:00,30.8,23.5,29.99,NE,49,7.0,10.0,74,0.00,,BKN055,0.00,VWS V14.00,2013-03-05 16:29:00,
2013-03-05 11:34:00,30.6,23.3,29.98,East,82,3.0,15.0,74,0.00,,BKN055,0.00,VWS V14.00,2013-03-05 16:34:00,
2013-03-05 11:39:00,30.7,23.1,29.98,East,84,4.0,5.0,73,0.00,,BKN055,0.00,VWS V14.00,2013-03-05 16:39:00,
2013-03-05 11:44:00,30.9,23.6,29.98,ESE,113,6.0,15.0,74,0.00,,BKN055,0.00,VWS V14.00,2013-03-05 16:44:00,
2013-03-05 11:49:00,31.2,23.6,29.98,East,79,3.0,4.0,73,0.00,,BKN055,0.00,VWS V14.00,2013-03-05 16:49:00,
2013-03-05 11:54:00,31.6,24.0,29.98,East,95,6.0,11.0,73,0.00,,BKN055,0.00,VWS V14.00,2013-03-05 16:54:00,
2013-03-05 11:59:00,32.1,24.1,29.98,East,82,5.0,5.0,72,0.00,,BKN055,0.00,VWS V14.00,2013-03-05 16:59:00,
2013-03-05 12:04:00,32.2,23.9,29.98,East,80,5.0,13.0,71,0.00,,BKN055,0.00,VWS V14.00,2013-03-05 17:04:00,
2013-03-05 12:09:00,32.1,23.8,29.98,ENE,66,4.0,6.0,71,0.00,,BKN055,0.00,VWS V14.00,2013-03-05 17:09:00,
2013-03-05 12:14:00,32.0,23.7,29.98,SE,124,5.0,10.0,71,0.00,,BKN055,0.00,VWS V14.00,2013-03-05 17:14:00,
2013-03-05 12:19:00,32.3,24.3,29.97,ESE,103,7.0,12.0,72,0.00,,BKN055,0.00,VWS V14.00,2013-03-05 17:19:00,
2013-03-05 12:24:00,32.0,23.3,29.98,NE,46,8.0,14.0,70,0.00,,BKN055,0.00,VWS V14.00,2013-03-05 17:24:00,
2013-03-05 12:29:00,31.6,23.3,29.97,ENE,67,13.0,13.0,71,0.00,,BKN055,0.00,VWS V14.00,2013-03-05 17:29:00,
2013-03-05 12:34:00,30.8,22.5,29.97,ENE,76,7.0,13.0,71,0.00,,BKN055,0.00,VWS V14.00,2013-03-05 17:34:00,
2013-03-05 12:39:00,30.7,23.1,29.97,ESE,122,9.0,9.0,73,0.00,,BKN055,0.00,VWS V14.00,2013-03-05 17:39:00,
2013-03-05 12:44:00,31.1,23.5,29.97,East,96,2.0,11.0,73,0.00,,BKN055,0.00,VWS V14.00,2013-03-05 17:44:00,
2013-03-05 12:49:00,31.6,23.6,29.95,NE,52,4.0,6.0,72,0.00,,BKN055,0.00,VWS V14.00,2013-03-05 17:49:00,
2013-03-05 12:54:00,31.9,23.9,29.95,NNE,24,9.0,13.0,72,0.00,,BKN055,0.00,VWS V14.00,2013-03-05 17:54:00,
2013-03-05 12:59:00,32.1,23.4,29.95,ENE,65,7.0,11.0,70,0.00,,BKN055,0.00,VWS V14.00,2013-03-05 17:59:00,
2013-03-05 13:04:00,32.3,23.6,29.95,ESE,109,9.0,14.0,70,0.00,,CLR,0.00,VWS V14.00,2013-03-05 18:04:00,
2013-03-05 13:09:00,32.0,23.7,29.94,East,96,5.0,15.0,71,0.00,,CLR,0.00,VWS V14.00,2013-03-05 18:09:00,
2013-03-05 13:14:00,31.9,23.6,29.93,East,90,4.0,14.0,71,0.00,,CLR,0.00,VWS V14.00,2013-03-05 18:14:00,
2013-03-05 13:19:00,32.4,24.4,29.93,East,81,6.0,15.0,72,0.00,,CLR,0.00,VWS V14.00,2013-03-05 18:19:00,
2013-03-05 13:24:00,31.3,23.3,29.93,ENE,69,14.0,16.0,72,0.00,,CLR,0.00,VWS V14.00,2013-03-05 18:24:00,
2013-03-05 13:29:00,30.6,23.6,29.93,NE,53,9.0,16.0,75,0.00,,CLR,0.00,VWS V14.00,2013-03-05 18:29:00,
2013-03-05 13:34:00,30.4,23.1,29.93,ENE,65,12.0,18.0,74,0.00,,CLR,0.00,VWS V14.00,2013-03-05 18:34:00,
2013-03-05 13:39:00,29.9,23.0,29.93,ENE,63,5.0,18.0,75,0.00,,CLR,0.00,VWS V14.00,2013-03-05 18:39:00,
2013-03-05 13:44:00,29.9,23.6,29.93,ENE,67,8.0,12.0,77,0.00,,CLR,0.00,VWS V14.00,2013-03-05 18:44:00,
2013-03-05 13:49:00,29.9,23.3,29.92,East,82,5.0,16.0,76,0.00,,CLR,0.00,VWS V14.00,2013-03-05 18:49:00,
2013-03-05 13:54:00,29.6,23.3,29.92,ENE,75,4.0,15.0,77,0.00,,CLR,0.00,VWS V14.00,2013-03-05 18:54:00,
2013-03-05 13:59:00,29.8,23.8,29.91,East,92,2.0,15.0,78,0.00,,CLR,0.00,VWS V14.00,2013-03-05 18:59:00,
2013-03-05 14:04:00,29.9,23.6,29.91,NNE,30,9.0,17.0,77,0.00,,SCT039,0.00,VWS V14.00,2013-03-05 19:04:00,
2013-03-05 14:09:00,29.6,23.3,29.90,East,89,8.0,8.0,77,0.00,,SCT039,0.00,VWS V14.00,2013-03-05 19:09:00,
2013-03-05 14:14:00,29.4,23.1,29.90,ESE,114,3.0,17.0,77,0.00,,SCT039,0.00,VWS V14.00,2013-03-05 19:14:00,
2013-03-05 14:19:00,29.4,23.1,29.90,East,98,5.0,17.0,77,0.00,,SCT039,0.00,VWS V14.00,2013-03-05 19:19:00,
2013-03-05 14:24:00,29.2,23.2,29.90,ESE,105,6.0,17.0,78,0.00,,SCT039,0.00,VWS V14.00,2013-03-05 19:24:00,
2013-03-05 14:29:00,29.0,23.0,29.89,ENE,69,11.0,17.0,78,0.00,,SCT039,0.00,VWS V14.00,2013-03-05 19:29:00,
2013-03-05 14:34:00,28.8,23.1,29.89,East,84,16.0,22.0,79,0.00,,SCT039,0.00,VWS V14.00,2013-03-05 19:34:00,
2013-03-05 14:39:00,29.0,23.3,29.88,ENE,74,5.0,5.0,79,0.00,,SCT039,0.00,VWS V14.00,2013-03-05 19:39:00,
2013-03-05 14:44:00,29.3,23.6,29.88,East,88,6.0,15.0,79,0.00,,SCT039,0.00,VWS V14.00,2013-03-05 19:44:00,
2013-03-05 14:49:00,29.7,24.0,29.88,ENE,73,5.0,15.0,79,0.00,,SCT039,0.00,VWS V14.00,2013-03-05 19:49:00,
2013-03-05 14:54:00,29.8,23.8,29.88,East,89,8.0,17.0,78,0.00,,SCT039,0.00,VWS V14.00,2013-03-05 19:54:00,
2013-03-05 14:59:00,29.8,23.8,29.88,ENE,69,6.0,17.0,78,0.00,,SCT039,0.00,VWS V14.00,2013-03-05 19:59:00,
2013-03-05 15:04:00,29.9,23.9,29.87,ENE,74,2.0,13.0,78,0.00,,BKN080,0.00,VWS V14.00,2013-03-05 20:04:00,
2013-03-05 15:09:00,30.1,24.1,29.87,East,80,5.0,13.0,78,0.00,,BKN080,0.00,VWS V14.00,2013-03-05 20:09:00,
2013-03-05 15:14:00,30.3,24.3,29.87,East,90,5.0,11.0,78,0.00,,BKN080,0.00,VWS V14.00,2013-03-05 20:14:00,
2013-03-05 15:19:00,30.4,24.1,29.86,East,101,5.0,17.0,77,0.00,,BKN080,0.00,VWS V14.00,2013-03-05 20:19:00,
2013-03-05 15:24:00,30.2,23.9,29.86,East,88,1.0,19.0,77,0.00,,BKN080,0.00,VWS V14.00,2013-03-05 20:24:00,
2013-03-05 15:29:00,30.3,24.3,29.85,NE,40,11.0,19.0,78,0.00,,BKN080,0.00,VWS V14.00,2013-03-05 20:29:00,
2013-03-05 15:34:00,30.2,23.9,29.85,NE,44,7.0,16.0,77,0.00,,BKN080,0.00,VWS V14.00,2013-03-05 20:34:00,
2013-03-05 15:39:00,30.3,24.0,29.85,East,95,5.0,16.0,77,0.00,,BKN080,0.00,VWS V14.00,2013-03-05 20:39:00,
2013-03-05 15:44:00,30.3,24.3,29.84,ENE,76,9.0,15.0,78,0.00,,BKN080,0.00,VWS V14.00,2013-03-05 20:44:00,
2013-03-05 15:49:00,30.1,23.8,29.84,ENE,65,8.0,20.0,77,0.00,,BKN080,0.00,VWS V14.00,2013-03-05 20:49:00,
2013-03-05 15:54:00,29.9,23.9,29.84,East,97,4.0,20.0,78,0.00,,BKN080,0.00,VWS V14.00,2013-03-05 20:54:00,
2013-03-05 15:59:00,30.1,24.4,29.83,ENE,74,5.0,20.0,79,0.00,,BKN080,0.00,VWS V14.00,2013-03-05 20:59:00,
2013-03-05 16:04:00,30.2,24.2,29.83,ENE,71,4.0,14.0,78,0.00,,OVC042,0.00,VWS V14.00,2013-03-05 21:04:00,
2013-03-05 16:09:00,30.2,24.2,29.83,SE,134,15.0,16.0,78,0.00,,OVC042,0.00,VWS V14.00,2013-03-05 21:09:00,
2013-03-05 16:14:00,30.1,24.1,29.83,NE,55,9.0,11.0,78,0.00,,OVC042,0.00,VWS V14.00,2013-03-05 21:14:00,
2013-03-05 16:19:00,30.0,24.3,29.83,NNE,20,3.0,15.0,79,0.00,,OVC042,0.00,VWS V14.00,2013-03-05 21:19:00,
2013-03-05 16:24:00,29.9,24.2,29.82,East,96,5.0,14.0,79,0.00,,OVC042,0.00,VWS V14.00,2013-03-05 21:24:00,
2013-03-05 16:29:00,29.8,24.1,29.83,East,85,4.0,14.0,79,0.00,,OVC042,0.00,VWS V14.00,2013-03-05 21:29:00,
2013-03-05 16:34:00,29.6,23.9,29.82,East,79,11.0,15.0,79,0.00,,OVC042,0.00,VWS V14.00,2013-03-05 21:34:00,
2013-03-05 16:39:00,29.6,24.2,29.82,East,85,6.0,16.0,80,0.00,,OVC042,0.00,VWS V14.00,2013-03-05 21:39:00,
2013-03-05 16:44:00,29.6,24.2,29.82,East,82,5.0,15.0,80,0.00,,OVC042,0.00,VWS V14.00,2013-03-05 21:44:00,
2013-03-05 16:49:00,29.6,24.2,29.82,East,91,6.0,15.0,80,0.00,,OVC042,0.00,VWS V14.00,2013-03-05 21:49:00,
2013-03-05 16:54:00,29.5,24.1,29.81,ENE,74,7.0,17.0,80,0.00,,OVC042,0.00,VWS V14.00,2013-03-05 21:54:00,
2013-03-05 16:59:00,29.5,24.1,29.81,East,83,2.0,17.0,80,0.00,,OVC042,0.00,VWS V14.00,2013-03-05 21:59:00,
2013-03-05 17:04:00,29.4,24.0,29.81,ENE,60,4.0,14.0,80,0.00,,OVC046,0.00,VWS V14.00,2013-03-05 22:04:00,
2013-03-05 17:09:00,29.4,24.3,29.81,East,96,4.0,14.0,81,0.00,,OVC046,0.00,VWS V14.00,2013-03-05 22:09:00,
2013-03-05 17:14:00,29.4,24.3,29.81,ENE,77,5.0,13.0,81,0.00,,OVC046,0.00,VWS V14.00,2013-03-05 22:14:00,
2013-03-05 17:19:00,29.3,24.2,29.81,ENE,69,5.0,13.0,81,0.00,,OVC046,0.00,VWS V14.00,2013-03-05 22:19:00,
2013-03-05 17:24:00,29.3,24.2,29.81,East,84,6.0,14.0,81,0.00,,OVC046,0.00,VWS V14.00,2013-03-05 22:24:00,
2013-03-05 17:29:00,29.3,24.2,29.81,ESE,102,9.0,14.0,81,0.00,,OVC046,0.00,VWS V14.00,2013-03-05 22:29:00,
2013-03-05 17:34:00,29.3,24.2,29.81,ENE,73,6.0,15.0,81,0.00,,OVC046,0.00,VWS V14.00,2013-03-05 22:34:00,
2013-03-05 17:39:00,29.3,24.2,29.81,SE,136,3.0,15.0,81,0.00,,OVC046,0.00,VWS V14.00,2013-03-05 22:39:00,
2013-03-05 17:44:00,29.2,24.1,29.81,East,101,3.0,12.0,81,0.00,,OVC046,0.00,VWS V14.00,2013-03-05 22:44:00,
2013-03-05 17:49:00,29.2,24.1,29.81,ESE,115,4.0,12.0,81,0.00,,OVC046,0.00,VWS V14.00,2013-03-05 22:49:00,
2013-03-05 17:54:00,29.3,24.5,29.81,ESE,111,8.0,16.0,82,0.00,,OVC046,0.00,VWS V14.00,2013-03-05 22:54:00,
2013-03-05 17:59:00,29.3,24.5,29.81,East,101,2.0,16.0,82,0.00,,OVC046,0.00,VWS V14.00,2013-03-05 22:59:00,
2013-03-05 18:04:00,29.4,24.3,29.80,ENE,72,1.0,13.0,81,0.00,,OVC065,0.00,VWS V14.00,2013-03-05 23:04:00,
2013-03-05 18:09:00,29.4,24.3,29.80,ENE,65,4.0,13.0,81,0.00,,OVC065,0.00,VWS V14.00,2013-03-05 23:09:00,
2013-03-05 18:14:00,29.5,24.4,29.80,ENE,57,5.0,12.0,81,0.00,,OVC065,0.00,VWS V14.00,2013-03-05 23:14:00,
2013-03-05 18:19:00,29.6,24.5,29.80,ENE,66,6.0,13.0,81,0.00,,OVC065,0.00,VWS V14.00,2013-03-05 23:19:00,
2013-03-05 18:24:00,29.6,24.2,29.79,ENE,75,5.0,12.0,80,0.00,,OVC065,0.00,VWS V14.00,2013-03-05 23:24:00,
2013-03-05 18:29:00,29.7,24.3,29.80,NE,50,11.0,13.0,80,0.00,,OVC065,0.00,VWS V14.00,2013-03-05 23:29:00,
2013-03-05 18:34:00,29.7,24.0,29.80,East,81,12.0,15.0,79,0.00,,OVC065,0.00,VWS V14.00,2013-03-05 23:34:00,
2013-03-05 18:39:00,29.8,23.5,29.80,ENE,57,0.0,17.0,77,0.00,,OVC065,0.00,VWS V14.00,2013-03-05 23:39:00,
2013-03-05 18:44:00,29.9,23.6,29.80,East,84,9.0,15.0,77,0.00,,OVC065,0.00,VWS V14.00,2013-03-05 23:44:00,
2013-03-05 18:49:00,29.9,23.6,29.80,East,95,2.0,15.0,77,0.00,,OVC065,0.00,VWS V14.00,2013-03-05 23:49:00,
2013-03-05 18:54:00,30.0,23.7,29.80,NE,46,5.0,12.0,77,0.00,,OVC065,0.00,VWS V14.00,2013-03-05 23:54:00,
2013-03-05 18:59:00,30.1,23.8,29.80,ENE,60,1.0,12.0,77,0.00,,OVC065,0.00,VWS V14.00,2013-03-05 23:59:00,
2013-03-05 19:04:00,30.1,24.1,29.80,NE,53,9.0,10.0,78,0.00,,OVC042,0.00,VWS V14.00,2013-03-06 00:04:00,
2013-03-05 19:09:00,30.1,24.1,29.80,ENE,76,5.0,12.0,78,0.00,,OVC042,0.00,VWS V14.00,2013-03-06 00:09:00,
2013-03-05 19:14:00,30.2,24.2,29.80,NE,46,3.0,10.0,78,0.00,,OVC042,0.00,VWS V14.00,2013-03-06 00:14:00,
2013-03-05 19:19:00,30.2,24.2,29.80,ENE,65,6.0,15.0,78,0.00,,OVC042,0.00,VWS V14.00,2013-03-06 00:19:00,
2013-03-05 19:24:00,30.2,23.9,29.80,ENE,69,9.0,15.0,77,0.00,,OVC042,0.00,VWS V14.00,2013-03-06 00:24:00,
2013-03-05 19:29:00,30.2,23.9,29.79,ENE,61,9.0,15.0,77,0.00,,OVC042,0.00,VWS V14.00,2013-03-06 00:29:00,
2013-03-05 19:34:00,30.2,23.9,29.79,ENE,67,9.0,13.0,77,0.00,,OVC042,0.00,VWS V14.00,2013-03-06 00:34:00,
2013-03-05 19:39:00,30.2,23.9,29.78,ENE,63,3.0,14.0,77,0.00,,OVC042,0.00,VWS V14.00,2013-03-06 00:39:00,
2013-03-05 19:44:00,30.2,23.9,29.78,ENE,71,7.0,17.0,77,0.00,,OVC042,0.00,VWS V14.00,2013-03-06 00:44:00,
2013-03-05 19:49:00,30.2,23.9,29.78,NE,53,4.0,17.0,77,0.00,,OVC042,0.00,VWS V14.00,2013-03-06 00:49:00,
2013-03-05 19:54:00,30.2,23.6,29.79,ENE,68,4.0,11.0,76,0.00,,OVC042,0.00,VWS V14.00,2013-03-06 00:54:00,
2013-03-05 19:59:00,30.2,23.6,29.79,ENE,76,4.0,14.0,76,0.00,,OVC042,0.00,VWS V14.00,2013-03-06 00:59:00,
2013-03-05 20:04:00,30.2,23.6,29.79,East,98,6.0,13.0,76,0.00,,OVC042,0.00,VWS V14.00,2013-03-06 01:04:00,
2013-03-05 20:09:00,30.2,23.6,29.79,NNE,19,10.0,16.0,76,0.00,,OVC042,0.00,VWS V14.00,2013-03-06 01:09:00,
2013-03-05 20:14:00,30.2,23.6,29.79,East,92,5.0,17.0,76,0.00,,OVC042,0.00,VWS V14.00,2013-03-06 01:14:00,
2013-03-05 20:19:00,30.2,23.6,29.79,ENE,70,10.0,17.0,76,0.00,,OVC042,0.00,VWS V14.00,2013-03-06 01:19:00,
2013-03-05 20:24:00,30.1,23.5,29.79,ENE,71,7.0,14.0,76,0.00,,OVC042,0.00,VWS V14.00,2013-03-06 01:24:00,
2013-03-05 20:29:00,30.1,23.5,29.79,ENE,61,16.0,16.0,76,0.00,,OVC042,0.00,VWS V14.00,2013-03-06 01:29:00,
2013-03-05 20:34:00,30.1,23.5,29.79,East,79,5.0,19.0,76,0.00,,OVC042,0.00,VWS V14.00,2013-03-06 01:34:00,
2013-03-05 20:39:00,30.1,23.5,29.79,ENE,69,7.0,19.0,76,0.00,,OVC042,0.00,VWS V14.00,2013-03-06 01:39:00,
2013-03-05 20:44:00,30.1,23.8,29.78,East,84,5.0,12.0,77,0.00,,OVC042,0.00,VWS V14.00,2013-03-06 01:44:00,
2013-03-05 20:49:00,30.1,23.8,29.79,NE,36,5.0,13.0,77,0.00,,OVC042,0.00,VWS V14.00,2013-03-06 01:49:00,
2013-03-05 20:54:00,30.1,23.8,29.79,East,90,6.0,14.0,77,0.00,,OVC042,0.00,VWS V14.00,2013-03-06 01:54:00,
2013-03-05 20:59:00,30.1,23.8,29.79,ENE,67,5.0,14.0,77,0.00,,OVC042,0.00,VWS V14.00,2013-03-06 01:59:00,
2013-03-05 21:04:00,30.1,23.8,29.79,ENE,65,3.0,16.0,77,0.00,,OVC046,0.00,VWS V14.00,2013-03-06 02:04:00,
2013-03-05 21:09:00,30.1,23.8,29.79,ENE,64,2.0,17.0,77,0.00,,OVC046,0.00,VWS V14.00,2013-03-06 02:09:00,
2013-03-05 21:14:00,30.1,23.8,29.79,ENE,74,6.0,12.0,77,0.00,,OVC046,0.00,VWS V14.00,2013-03-06 02:14:00,
2013-03-05 21:19:00,30.1,23.8,29.79,NNE,12,5.0,14.0,77,0.00,,OVC046,0.00,VWS V14.00,2013-03-06 02:19:00,
2013-03-05 21:24:00,30.1,23.8,29.79,ENE,64,1.0,15.0,77,0.00,,OVC046,0.00,VWS V14.00,2013-03-06 02:24:00,
2013-03-05 21:29:00,30.1,24.1,29.79,ENE,64,3.0,15.0,78,0.00,,OVC046,0.00,VWS V14.00,2013-03-06 02:29:00,
2013-03-05 21:34:00,30.1,24.1,29.79,ESE,102,5.0,13.0,78,0.00,,OVC046,0.00,VWS V14.00,2013-03-06 02:34:00,
2013-03-05 21:39:00,30.2,24.2,29.79,ENE,65,6.0,15.0,78,0.00,,OVC046,0.00,VWS V14.00,2013-03-06 02:39:00,
2013-03-05 21:44:00,30.2,24.2,29.79,ENE,67,3.0,14.0,78,0.00,,OVC046,0.00,VWS V14.00,2013-03-06 02:44:00,
2013-03-05 21:49:00,30.2,24.2,29.79,North,5,7.0,17.0,78,0.00,,OVC046,0.00,VWS V14.00,2013-03-06 02:49:00,
2013-03-05 21:54:00,30.2,24.2,29.79,ENE,70,2.0,7.0,78,0.00,,OVC046,0.00,VWS V14.00,2013-03-06 02:54:00,
2013-03-05 21:59:00,30.3,24.3,29.79,NNE,29,3.0,17.0,78,0.00,,OVC046,0.00,VWS V14.00,2013-03-06 02:59:00,
2013-03-05 22:04:00,30.3,24.6,29.79,ENE,61,5.0,17.0,79,0.00,,OVC041,0.00,VWS V14.00,2013-03-06 03:04:00,
2013-03-05 22:09:00,30.3,24.6,29.79,ENE,67,4.0,17.0,79,0.00,,OVC041,0.00,VWS V14.00,2013-03-06 03:09:00,
2013-03-05 22:14:00,30.4,24.4,29.79,NE,37,5.0,13.0,78,0.00,,OVC041,0.00,VWS V14.00,2013-03-06 03:14:00,
2013-03-05 22:19:00,30.5,24.5,29.78,NE,44,10.0,14.0,78,0.00,,OVC041,0.00,VWS V14.00,2013-03-06 03:19:00,
2013-03-05 22:24:00,30.7,24.7,29.78,ENE,63,3.0,10.0,78,0.00,,OVC041,0.00,VWS V14.00,2013-03-06 03:24:00,
2013-03-05 22:29:00,30.7,24.7,29.79,NE,46,4.0,10.0,78,0.00,,OVC041,0.00,VWS V14.00,2013-03-06 03:29:00,
2013-03-05 22:34:00,30.8,24.8,29.79,ENE,70,4.0,12.0,78,0.00,,,0.00,VWS V14.00,2013-03-06 03:34:00,
2013-03-05 22:38:00,30.7,24.7,29.79,NE,40,2.0,14.0,78,0.00,,,0.00,VWS V14.00,2013-03-06 03:38:00,
2013-03-05 22:43:00,30.5,24.5,29.79,ENE,72,2.0,13.0,78,0.00,,,0.00,VWS V14.00,2013-03-06 03:43:00,
2013-03-05 22:48:00,30.4,24.4,29.79,ENE,75,2.0,15.0,78,0.00,,,0.00,VWS V14.00,2013-03-06 03:48:00,
2013-03-05 22:53:00,30.4,24.4,29.79,NE,49,2.0,13.0,78,0.00,,,0.00,VWS V14.00,2013-03-06 03:53:00,
2013-03-05 22:58:00,30.3,24.3,29.79,NE,42,0.0,13.0,78,0.00,,,0.00,VWS V14.00,2013-03-06 03:58:00,
2013-03-05 23:03:00,30.3,24.3,29.79,ENE,67,0.0,16.0,78,0.00,,OVC055,0.00,VWS V14.00,2013-03-06 04:03:00,
2013-03-05 23:08:00,30.3,24.3,29.79,NNE,18,7.0,16.0,78,0.00,,OVC055,0.00,VWS V14.00,2013-03-06 04:08:00,
2013-03-05 23:13:00,30.2,24.2,29.79,NE,38,1.0,10.0,78,0.00,,OVC055,0.00,VWS V14.00,2013-03-06 04:13:00,
2013-03-05 23:18:00,30.2,24.2,29.79,NNE,30,4.0,11.0,78,0.00,,OVC055,0.00,VWS V14.00,2013-03-06 04:18:00,
2013-03-05 23:23:00,30.2,24.2,29.79,NE,55,1.0,14.0,78,0.00,,OVC055,0.00,VWS V14.00,2013-03-06 04:23:00,
2013-03-05 23:28:00,30.1,24.1,29.79,NE,34,6.0,14.0,78,0.00,,OVC055,0.00,VWS V14.00,2013-03-06 04:28:00,
2013-03-05 23:33:00,29.9,23.9,29.79,NE,48,5.0,10.0,78,0.00,,OVC055,0.00,VWS V14.00,2013-03-06 04:33:00,
2013-03-05 23:38:00,29.8,23.8,29.79,NE,37,6.0,10.0,78,0.00,,OVC055,0.00,VWS V14.00,2013-03-06 04:38:00,
2013-03-05 23:43:00,29.6,23.9,29.79,ENE,75,6.0,11.0,79,0.00,,OVC055,0.00,VWS V14.00,2013-03-06 04:43:00,
2013-03-05 23:48:00,29.5,23.5,29.80,NE,45,9.0,13.0,78,0.00,,OVC055,0.00,VWS V14.00,2013-03-06 04:48:00,
2013-03-05 23:53:00,29.4,23.7,29.79,NNE,32,5.0,10.0,79,0.00,,OVC055,0.00,VWS V14.00,2013-03-06 04:53:00,
2013-03-05 23:58:00,29.3,23.6,29.79,NNE,15,11.0,13.0,79,0.00,,OVC055,0.00,VWS V14.00,2013-03-06 04:58:00,